Time;durP1;ratioP1;P1;durP2;ratioP2;P2;SDS_P1;SDS_P2;PMS_P1;PMS_P2;Temp;Humidity;BMP_temperature;BMP_pressure;BME280_temperature;BME280_humidity;BME280_pressure;Samples;Min_cycle;Max_cycle;Signal;HPM_P1;HPM_P2
2021/12/09 00:01:37;;;;;;;50.42;19.02;;;1.60;87.90;;;;;;4967938;28;20030;-61
2021/12/09 00:04:06;;;;;;;48.72;20.90;;;1.60;87.70;;;;;;4983365;28;20520;-61
2021/12/09 00:06:34;;;;;;;54.20;21.25;;;1.70;87.30;;;;;;4985873;28;20114;-64
2021/12/09 00:11:46;;;;;;;49.70;18.52;;;1.70;87.00;;;;;;4949323;28;20053;-66
2021/12/09 00:14:24;;;;;;;46.15;19.20;;;1.60;86.80;;;;;;4948135;28;20042;-66
2021/12/09 00:16:52;;;;;;;51.90;20.02;;;1.70;86.70;;;;;;4956565;28;20031;-66
2021/12/09 00:19:18;;;;;;;53.35;19.90;;;1.60;87.10;;;;;;4950120;28;20035;-66
2021/12/09 00:21:44;;;;;;;50.13;19.88;;;1.60;87.00;;;;;;4954567;28;20114;-66
2021/12/09 00:24:10;;;;;;;48.58;20.45;;;1.60;86.90;;;;;;4949270;28;20031;-66
2021/12/09 00:26:36;;;;;;;50.70;19.35;;;1.60;86.90;;;;;;4944885;28;20795;-66
2021/12/09 00:29:02;;;;;;;44.15;18.30;;;1.60;87.00;;;;;;4965033;28;20027;-66
2021/12/09 00:31:28;;;;;;;50.22;18.85;;;1.50;87.00;;;;;;4956722;28;20089;-66
2021/12/09 00:33:56;;;;;;;50.22;18.98;;;1.50;87.10;;;;;;4953228;28;20043;-66
2021/12/09 00:36:33;;;;;;;53.72;20.85;;;1.60;87.50;;;;;;4949354;28;20588;-66
2021/12/09 00:38:59;;;;;;;51.08;19.52;;;1.70;87.00;;;;;;4960921;28;20035;-66
2021/12/09 00:41:25;;;;;;;55.63;20.23;;;1.60;86.10;;;;;;4950175;28;20111;-65
2021/12/09 00:43:52;;;;;;;47.45;18.35;;;1.50;86.70;;;;;;4956898;28;20023;-65
2021/12/09 00:46:18;;;;;;;48.95;18.35;;;1.40;87.70;;;;;;4957335;28;20049;-65
2021/12/09 00:48:44;;;;;;;45.70;18.85;;;1.40;87.10;;;;;;4953757;28;20031;-64
2021/12/09 00:51:10;;;;;;;48.53;17.83;;;1.50;87.00;;;;;;4946438;28;20615;-65
2021/12/09 00:53:36;;;;;;;48.55;19.40;;;1.30;87.30;;;;;;4943087;28;20034;-66
2021/12/09 00:56:08;;;;;;;45.90;18.75;;;1.10;88.30;;;;;;4948070;28;20030;-66
2021/12/09 00:58:34;;;;;;;49.83;18.08;;;1.30;88.20;;;;;;4954837;28;20035;-66
2021/12/09 01:01:00;;;;;;;47.72;19.05;;;1.30;87.50;;;;;;4955842;28;20468;-65
2021/12/09 01:03:26;;;;;;;45.58;18.33;;;1.20;87.70;;;;;;4949652;28;20027;-65
2021/12/09 01:05:52;;;;;;;46.50;18.33;;;1.30;87.40;;;;;;4947112;28;20062;-65
2021/12/09 01:08:18;;;;;;;50.22;19.70;;;1.30;87.80;;;;;;4945713;28;20035;-65
2021/12/09 01:10:44;;;;;;;44.28;18.52;;;1.30;88.30;;;;;;4953741;28;20130;-65
2021/12/09 01:13:11;;;;;;;56.95;19.00;;;1.40;87.50;;;;;;4943712;28;20108;-65
2021/12/09 01:15:37;;;;;;;46.17;18.65;;;1.40;87.60;;;;;;4965441;28;20039;-66
2021/12/09 01:18:04;;;;;;;57.45;20.27;;;1.60;86.80;;;;;;4950576;28;20034;-66
2021/12/09 01:20:31;;;;;;;43.25;18.92;;;1.60;86.60;;;;;;4950230;28;20035;-66
2021/12/09 01:22:58;;;;;;;48.35;18.95;;;1.60;86.80;;;;;;4941422;28;20063;-66
2021/12/09 01:25:26;;;;;;;46.13;18.92;;;1.70;86.40;;;;;;4956865;28;20047;-64
2021/12/09 01:27:53;;;;;;;52.85;19.70;;;1.70;85.50;;;;;;4959317;28;20022;-66
2021/12/09 01:30:21;;;;;;;46.92;18.20;;;1.70;85.70;;;;;;4945838;28;20042;-66
2021/12/09 01:32:51;;;;;;;48.10;18.73;;;1.70;85.60;;;;;;4966858;28;20027;-66
2021/12/09 01:35:20;;;;;;;54.10;19.35;;;1.60;85.20;;;;;;4949684;28;20058;-64
2021/12/09 01:37:47;;;;;;;48.78;19.05;;;1.60;85.40;;;;;;4959324;28;20031;-66
2021/12/09 01:40:15;;;;;;;54.45;19.90;;;1.60;86.10;;;;;;4962393;28;20034;-66
2021/12/09 01:42:40;;;;;;;51.53;19.23;;;1.60;85.90;;;;;;4956984;28;20027;-65
2021/12/09 01:45:07;;;;;;;49.53;19.45;;;1.60;85.30;;;;;;4954467;28;20035;-66
2021/12/09 01:47:32;;;;;;;52.85;19.73;;;1.70;85.10;;;;;;4953335;28;20782;-65
2021/12/09 01:49:58;;;;;;;54.05;19.30;;;1.60;85.00;;;;;;4945383;28;20111;-65
2021/12/09 01:52:25;;;;;;;55.13;19.42;;;1.50;85.40;;;;;;4953675;28;20123;-66
2021/12/09 01:54:51;;;;;;;57.95;20.95;;;1.40;86.30;;;;;;4948529;28;20041;-66
2021/12/09 01:57:18;;;;;;;53.67;21.40;;;1.20;86.70;;;;;;4951832;28;20040;-65
2021/12/09 01:59:44;;;;;;;51.25;19.17;;;1.00;87.50;;;;;;4952155;28;20447;-65
2021/12/09 02:02:09;;;;;;;48.72;19.50;;;1.10;88.20;;;;;;4945380;28;20070;-65
2021/12/09 02:04:35;;;;;;;53.13;20.88;;;1.00;87.60;;;;;;4943184;28;20060;-66
2021/12/09 02:07:01;;;;;;;57.42;21.20;;;0.90;88.20;;;;;;4947775;28;20065;-65
2021/12/09 02:09:27;;;;;;;56.40;18.92;;;0.90;88.30;;;;;;4951865;28;20942;-65
2021/12/09 02:11:52;;;;;;;58.40;20.80;;;0.90;88.30;;;;;;4949487;28;20038;-66
2021/12/09 02:14:18;;;;;;;54.80;21.55;;;1.00;88.30;;;;;;4953276;28;20809;-65
2021/12/09 02:16:44;;;;;;;63.78;21.75;;;1.00;87.80;;;;;;4943659;28;20035;-66
2021/12/09 02:19:11;;;;;;;60.53;22.45;;;0.90;87.90;;;;;;4945249;28;20161;-66
2021/12/09 02:21:38;;;;;;;57.15;21.33;;;0.80;88.80;;;;;;4954692;28;20542;-66
2021/12/09 02:24:07;;;;;;;55.92;20.50;;;0.80;89.00;;;;;;4959769;28;20027;-66
2021/12/09 02:26:37;;;;;;;60.50;21.02;;;0.90;88.80;;;;;;4954012;28;20062;-65
2021/12/09 02:29:06;;;;;;;55.28;19.95;;;1.00;88.40;;;;;;4948652;28;20027;-66
2021/12/09 02:31:34;;;;;;;52.88;20.05;;;0.90;88.20;;;;;;4949254;28;20117;-65
2021/12/09 02:34:00;;;;;;;55.53;20.08;;;0.90;88.90;;;;;;4954755;28;20034;-65
2021/12/09 02:36:27;;;;;;;62.45;21.63;;;0.90;88.80;;;;;;4962167;28;20150;-65
2021/12/09 02:38:53;;;;;;;56.15;21.17;;;0.90;88.00;;;;;;4956523;28;20030;-66
2021/12/09 02:41:24;;;;;;;61.92;20.83;;;0.90;88.60;;;;;;4949741;28;20042;-65
2021/12/09 02:43:55;;;;;;;57.67;22.02;;;1.00;88.30;;;;;;4966977;28;20109;-66
2021/12/09 02:46:25;;;;;;;66.10;22.08;;;1.00;88.60;;;;;;4947915;28;20142;-66
2021/12/09 02:48:51;;;;;;;60.42;21.20;;;1.00;88.30;;;;;;4952834;28;20088;-66
2021/12/09 02:51:17;;;;;;;61.90;22.83;;;1.10;88.20;;;;;;4952410;28;20431;-66
2021/12/09 02:53:44;;;;;;;64.32;20.98;;;1.10;87.60;;;;;;4948548;28;20952;-66
2021/12/09 02:56:11;;;;;;;54.67;21.27;;;1.20;88.00;;;;;;4949182;28;20446;-65
2021/12/09 02:58:37;;;;;;;66.93;21.20;;;1.20;87.20;;;;;;4947320;28;20780;-66
2021/12/09 03:01:20;;;;;;;55.80;21.25;;;1.20;87.70;;;;;;4951427;28;20027;-65
2021/12/09 03:03:51;;;;;;;59.17;21.73;;;1.30;87.10;;;;;;4953446;28;20826;-66
2021/12/09 03:06:19;;;;;;;50.38;21.90;;;1.40;86.80;;;;;;4959474;28;20106;-66
2021/12/09 03:08:44;;;;;;;59.67;20.80;;;1.40;85.70;;;;;;4957930;28;20054;-65
2021/12/09 03:11:14;;;;;;;67.93;22.42;;;1.40;85.60;;;;;;4946380;28;20109;-66
2021/12/09 03:13:42;;;;;;;62.67;22.15;;;1.40;85.90;;;;;;4946943;28;20488;-65
2021/12/09 03:16:08;;;;;;;61.97;23.58;;;1.30;86.10;;;;;;4947353;28;20042;-65
2021/12/09 03:18:43;;;;;;;55.05;21.60;;;1.20;87.00;;;;;;4954410;28;20126;-66
2021/12/09 03:21:14;;;;;;;60.35;22.73;;;1.20;87.40;;;;;;4959638;28;20292;-66
2021/12/09 03:23:39;;;;;;;57.88;20.98;;;1.30;86.80;;;;;;4949884;28;20039;-66
2021/12/09 03:26:05;;;;;;;55.40;21.42;;;1.50;86.80;;;;;;4959680;28;20090;-66
2021/12/09 03:28:31;;;;;;;58.20;21.33;;;1.60;85.60;;;;;;4947490;28;20035;-66
2021/12/09 03:30:57;;;;;;;57.17;22.08;;;1.60;85.80;;;;;;4950828;28;20042;-66
2021/12/09 03:33:22;;;;;;;54.90;20.70;;;1.60;85.10;;;;;;4954708;28;20047;-66
2021/12/09 03:35:57;;;;;;;61.35;22.42;;;1.50;85.70;;;;;;4956739;28;20435;-66
2021/12/09 03:38:23;;;;;;;57.03;21.02;;;1.50;85.90;;;;;;4953433;28;20041;-65
2021/12/09 03:40:49;;;;;;;65.05;22.27;;;1.60;85.80;;;;;;4951417;28;20047;-65
2021/12/09 03:43:15;;;;;;;59.72;21.33;;;1.60;85.50;;;;;;4946853;28;20034;-66
2021/12/09 03:45:40;;;;;;;66.25;22.00;;;1.40;85.40;;;;;;4959784;28;20038;-66
2021/12/09 03:48:06;;;;;;;61.75;21.98;;;1.30;86.80;;;;;;4955099;28;20775;-66
2021/12/09 03:50:32;;;;;;;50.63;21.40;;;1.30;86.60;;;;;;4961088;28;20034;-65
2021/12/09 03:52:57;;;;;;;56.58;21.58;;;1.30;87.10;;;;;;4951476;28;20110;-66
2021/12/09 03:55:23;;;;;;;60.90;21.40;;;1.30;87.00;;;;;;4949232;28;20792;-66
2021/12/09 03:57:49;;;;;;;57.92;21.25;;;1.30;87.10;;;;;;4951416;28;20546;-66
2021/12/09 04:00:15;;;;;;;67.70;23.15;;;1.40;86.30;;;;;;4960802;28;20117;-66
2021/12/09 04:02:41;;;;;;;57.58;22.00;;;1.60;86.00;;;;;;4956447;28;20035;-66
2021/12/09 04:05:08;;;;;;;65.38;21.63;;;1.50;85.50;;;;;;4954187;28;20454;-66
2021/12/09 04:07:34;;;;;;;62.03;22.45;;;1.50;85.70;;;;;;4948721;28;20043;-66
2021/12/09 04:10:00;;;;;;;65.88;21.95;;;1.50;85.40;;;;;;4945634;28;20061;-66
2021/12/09 04:12:25;;;;;;;63.17;21.83;;;1.40;86.00;;;;;;4953586;28;20035;-66
2021/12/09 04:14:52;;;;;;;59.75;21.90;;;1.20;86.90;;;;;;4959795;28;20031;-66
2021/12/09 04:17:18;;;;;;;53.55;20.40;;;1.20;86.90;;;;;;4953014;28;20090;-66
2021/12/09 04:19:47;;;;;;;56.85;22.40;;;1.40;86.80;;;;;;4950319;28;20073;-66
2021/12/09 04:22:18;;;;;;;60.58;21.25;;;1.50;86.10;;;;;;4949004;28;20031;-66
2021/12/09 04:24:44;;;;;;;65.55;22.63;;;1.60;86.20;;;;;;4944134;28;20893;-66
2021/12/09 04:27:10;;;;;;;57.75;21.20;;;1.70;85.40;;;;;;4955987;28;20039;-66
2021/12/09 04:29:36;;;;;;;62.42;22.40;;;1.70;85.10;;;;;;4955556;28;20043;-66
2021/12/09 04:32:02;;;;;;;65.70;24.83;;;1.70;85.70;;;;;;4954548;28;20030;-66
2021/12/09 04:34:28;;;;;;;59.85;21.75;;;1.80;85.20;;;;;;4953190;28;20157;-66
2021/12/09 04:36:54;;;;;;;69.15;23.20;;;1.80;84.60;;;;;;4953801;28;20483;-66
2021/12/09 04:39:20;;;;;;;67.95;23.63;;;1.80;83.90;;;;;;4949553;28;20061;-66
2021/12/09 04:41:45;;;;;;;62.08;22.67;;;1.60;85.00;;;;;;4957844;28;20035;-66
2021/12/09 04:44:11;;;;;;;63.20;22.77;;;1.60;85.30;;;;;;4960426;28;20074;-66
2021/12/09 04:46:37;;;;;;;62.85;22.15;;;1.60;85.50;;;;;;4959773;28;20077;-66
2021/12/09 04:49:05;;;;;;;64.00;23.27;;;1.70;85.40;;;;;;4960141;28;20109;-66
2021/12/09 04:51:30;;;;;;;69.68;23.85;;;1.80;84.60;;;;;;4946795;28;20038;-66
2021/12/09 04:53:57;;;;;;;63.30;22.67;;;1.90;84.80;;;;;;4953740;28;20104;-66
2021/12/09 04:56:23;;;;;;;67.18;22.58;;;1.80;84.60;;;;;;4951891;28;20138;-66
2021/12/09 04:58:49;;;;;;;66.63;24.20;;;1.60;85.30;;;;;;4955125;28;20097;-66
2021/12/09 05:01:15;;;;;;;61.58;25.08;;;1.60;84.90;;;;;;4953050;28;20055;-66
2021/12/09 05:03:45;;;;;;;82.47;25.52;;;1.40;85.60;;;;;;4952227;28;20053;-66
2021/12/09 05:06:11;;;;;;;58.83;23.25;;;1.50;85.60;;;;;;4943596;28;20043;-66
2021/12/09 05:08:39;;;;;;;63.25;22.75;;;1.50;85.60;;;;;;4958600;28;20146;-66
2021/12/09 05:11:10;;;;;;;65.05;22.23;;;1.50;85.20;;;;;;4956299;28;20039;-66
2021/12/09 05:13:38;;;;;;;71.82;23.50;;;1.60;84.90;;;;;;4952102;28;20087;-66
2021/12/09 05:16:05;;;;;;;60.28;23.08;;;1.70;85.40;;;;;;4946377;28;20039;-66
2021/12/09 05:18:33;;;;;;;62.90;24.15;;;1.70;85.00;;;;;;4942823;28;20054;-66
2021/12/09 05:21:00;;;;;;;65.28;22.85;;;1.60;84.70;;;;;;4948953;28;20035;-66
2021/12/09 05:23:26;;;;;;;64.68;23.85;;;1.60;85.00;;;;;;4956833;28;20067;-66
2021/12/09 05:25:52;;;;;;;61.88;21.98;;;1.70;84.90;;;;;;4954568;28;20121;-66
2021/12/09 05:28:21;;;;;;;65.70;23.55;;;1.50;85.20;;;;;;4950417;28;20085;-66
2021/12/09 05:33:34;;;;;;;67.93;23.27;;;1.60;85.40;;;;;;4946509;28;20115;-66
2021/12/09 05:36:00;;;;;;;63.35;24.60;;;1.60;84.90;;;;;;4958756;28;20130;-66
2021/12/09 05:38:26;;;;;;;59.03;22.95;;;1.50;85.60;;;;;;4956298;28;20043;-66
2021/12/09 05:40:53;;;;;;;68.03;24.17;;;1.50;85.70;;;;;;4955446;28;20084;-66
2021/12/09 05:43:18;;;;;;;59.95;21.13;;;1.60;86.10;;;;;;4953652;28;20040;-66
2021/12/09 05:45:46;;;;;;;60.85;22.73;;;1.70;85.80;;;;;;4958011;28;20035;-66
2021/12/09 05:48:13;;;;;;;60.67;24.02;;;1.70;85.30;;;;;;4948717;28;20023;-64
2021/12/09 05:50:39;;;;;;;68.78;25.17;;;1.70;85.90;;;;;;4955477;28;20045;-66
2021/12/09 05:53:05;;;;;;;63.45;23.70;;;1.70;85.50;;;;;;4954125;28;20034;-66
2021/12/09 05:55:32;;;;;;;67.05;23.13;;;1.60;85.90;;;;;;4953443;28;20039;-66
2021/12/09 05:57:58;;;;;;;68.05;25.15;;;1.40;86.30;;;;;;4951577;28;20565;-66
2021/12/09 06:00:23;;;;;;;65.43;24.60;;;1.40;87.10;;;;;;4953158;28;20134;-66
2021/12/09 06:02:49;;;;;;;60.38;21.73;;;1.30;87.50;;;;;;4963272;28;20418;-65
2021/12/09 06:05:15;;;;;;;63.92;23.65;;;1.30;87.40;;;;;;4949720;28;20499;-66
2021/12/09 06:07:41;;;;;;;59.53;22.35;;;1.40;87.60;;;;;;4952802;28;20074;-66
2021/12/09 06:10:07;;;;;;;62.88;22.92;;;1.40;87.20;;;;;;4958752;28;20035;-66
2021/12/09 06:12:35;;;;;;;57.38;22.33;;;1.50;87.30;;;;;;4953701;28;20041;-66
2021/12/09 06:15:00;;;;;;;64.80;23.30;;;1.60;86.80;;;;;;4950738;28;20042;-66
2021/12/09 06:17:26;;;;;;;60.92;23.05;;;1.60;85.80;;;;;;4953405;28;20027;-66
2021/12/09 06:19:52;;;;;;;59.58;23.70;;;1.50;86.40;;;;;;4956045;28;20598;-66
2021/12/09 06:22:17;;;;;;;61.75;23.15;;;1.50;86.20;;;;;;4955869;28;20039;-66
2021/12/09 06:24:45;;;;;;;64.63;22.05;;;1.40;86.90;;;;;;4958368;28;20043;-66
2021/12/09 06:27:11;;;;;;;55.30;23.17;;;1.40;87.10;;;;;;4960275;28;20087;-66
2021/12/09 06:29:37;;;;;;;60.97;22.10;;;1.50;86.60;;;;;;4953558;28;20105;-66
2021/12/09 06:32:03;;;;;;;58.08;22.30;;;1.50;86.40;;;;;;4963096;28;20038;-66
2021/12/09 06:34:30;;;;;;;66.53;24.38;;;1.40;86.30;;;;;;4952809;28;20050;-66
2021/12/09 06:36:56;;;;;;;60.38;22.25;;;1.30;86.90;;;;;;4956611;28;20031;-66
2021/12/09 06:39:21;;;;;;;64.60;23.05;;;1.30;87.50;;;;;;4948516;28;20042;-66
2021/12/09 06:41:48;;;;;;;55.90;22.10;;;1.20;88.30;;;;;;4957276;28;20106;-66
2021/12/09 06:44:14;;;;;;;62.92;24.40;;;1.30;89.20;;;;;;4945025;28;20035;-66
2021/12/09 06:46:40;;;;;;;67.68;23.90;;;1.30;88.30;;;;;;4958756;28;20039;-66
2021/12/09 06:49:06;;;;;;;65.13;23.13;;;1.40;88.40;;;;;;4958496;28;20038;-66
2021/12/09 06:51:32;;;;;;;62.33;23.63;;;1.50;88.10;;;;;;4955703;28;20053;-66
2021/12/09 06:53:58;;;;;;;61.05;22.60;;;1.60;88.20;;;;;;4961432;28;20023;-66
2021/12/09 06:56:25;;;;;;;60.33;22.85;;;1.60;87.30;;;;;;4953167;28;20764;-66
2021/12/09 06:58:51;;;;;;;61.17;22.67;;;1.40;88.40;;;;;;4945451;28;20125;-65
2021/12/09 07:01:16;;;;;;;72.63;23.27;;;1.50;88.60;;;;;;4954852;28;20038;-66
2021/12/09 07:03:42;;;;;;;64.25;24.05;;;1.50;88.60;;;;;;4962002;28;20062;-65
2021/12/09 07:06:11;;;;;;;56.15;21.35;;;1.60;88.80;;;;;;4958014;28;20045;-66
2021/12/09 07:08:44;;;;;;;66.03;22.95;;;1.60;89.00;;;;;;4962387;28;20146;-66
2021/12/09 07:11:11;;;;;;;62.80;23.85;;;1.50;89.00;;;;;;4954471;28;20090;-66
2021/12/09 07:13:37;;;;;;;59.17;22.55;;;1.60;89.20;;;;;;4951843;28;20069;-66
2021/12/09 07:16:04;;;;;;;61.85;22.05;;;1.60;89.20;;;;;;4961707;28;20411;-67
2021/12/09 07:18:30;;;;;;;67.50;24.33;;;1.60;89.70;;;;;;4954664;28;20502;-66
2021/12/09 07:20:56;;;;;;;63.10;24.48;;;1.60;89.30;;;;;;4964110;28;20023;-66
2021/12/09 07:23:22;;;;;;;63.15;22.17;;;1.60;89.00;;;;;;4965671;28;20086;-66
2021/12/09 07:25:48;;;;;;;58.38;23.20;;;1.60;89.10;;;;;;4954470;28;20043;-66
2021/12/09 07:28:14;;;;;;;64.25;22.80;;;1.60;89.30;;;;;;4959114;28;20038;-66
2021/12/09 07:30:40;;;;;;;61.25;22.60;;;1.60;89.40;;;;;;4973349;28;20031;-66
2021/12/09 07:33:06;;;;;;;63.65;23.90;;;1.70;89.40;;;;;;4952491;28;20031;-66
2021/12/09 07:35:32;;;;;;;63.72;23.38;;;1.60;88.60;;;;;;4957437;28;20035;-66
2021/12/09 07:37:59;;;;;;;67.65;25.63;;;1.60;88.70;;;;;;4955387;28;20035;-65
2021/12/09 07:40:26;;;;;;;71.15;24.77;;;1.50;89.90;;;;;;4957122;28;20026;-66
2021/12/09 07:42:52;;;;;;;61.83;21.98;;;1.50;90.10;;;;;;4955239;28;20027;-66
2021/12/09 07:45:18;;;;;;;62.75;23.10;;;1.50;90.00;;;;;;4951058;28;20518;-65
2021/12/09 07:47:46;;;;;;;67.97;24.83;;;1.60;90.00;;;;;;4956941;28;20129;-68
2021/12/09 07:50:14;;;;;;;62.40;23.73;;;1.60;90.00;;;;;;4951567;28;20035;-66
2021/12/09 07:52:41;;;;;;;54.50;21.98;;;1.60;90.00;;;;;;4959375;28;20045;-65
2021/12/09 07:55:08;;;;;;;60.42;22.20;;;1.70;89.70;;;;;;4945503;28;20023;-65
2021/12/09 07:57:35;;;;;;;64.10;24.52;;;1.80;90.00;;;;;;4956432;28;20058;-64
2021/12/09 08:00:04;;;;;;;72.05;24.58;;;1.80;89.80;;;;;;4960559;28;20031;-66
2021/12/09 08:02:38;;;;;;;;;;;1.90;89.40;;;;;;4971159;28;20446;-66
2021/12/09 08:05:04;;;;;;;54.90;20.95;;;1.70;89.10;;;;;;4954305;28;19925;-65
2021/12/09 08:07:29;;;;;;;67.28;22.90;;;1.80;89.50;;;;;;4953903;28;20039;-66
2021/12/09 08:09:55;;;;;;;60.50;23.63;;;1.70;89.80;;;;;;4965195;28;20750;-66
2021/12/09 08:12:21;;;;;;;70.32;24.52;;;1.60;89.20;;;;;;4955421;28;20078;-66
2021/12/09 08:14:46;;;;;;;59.85;22.55;;;1.60;89.40;;;;;;4955644;28;20046;-66
2021/12/09 08:17:45;;;;;;;66.70;24.67;;;1.60;89.60;;;;;;4951632;28;20039;-66
2021/12/09 08:20:14;;;;;;;62.67;22.98;;;1.50;89.60;;;;;;4949580;28;20035;-66
2021/12/09 08:22:42;;;;;;;61.50;23.70;;;1.50;90.10;;;;;;4942285;28;20147;-66
2021/12/09 08:25:10;;;;;;;70.68;23.00;;;1.50;90.30;;;;;;4958497;28;20030;-66
2021/12/09 08:27:36;;;;;;;70.85;23.27;;;1.60;90.00;;;;;;4971207;28;20038;-66
2021/12/09 08:30:08;;;;;;;64.65;23.17;;;1.60;90.10;;;;;;4955147;28;20042;-66
2021/12/09 08:32:34;;;;;;;65.35;22.65;;;1.60;90.00;;;;;;4956539;28;20047;-68
2021/12/09 08:35:00;;;;;;;60.08;20.50;;;1.60;90.40;;;;;;4957357;28;20035;-66
2021/12/09 08:37:27;;;;;;;76.10;25.50;;;1.60;90.40;;;;;;4959117;28;20027;-67
2021/12/09 08:39:53;;;;;;;66.00;23.85;;;1.70;90.30;;;;;;4955741;28;20035;-67
2021/12/09 08:42:19;;;;;;;58.78;22.25;;;1.80;90.00;;;;;;4959041;28;20054;-67
2021/12/09 08:44:45;;;;;;;63.25;23.85;;;1.70;89.70;;;;;;4953809;28;20787;-66
2021/12/09 08:47:11;;;;;;;62.70;22.10;;;1.70;90.00;;;;;;4957803;28;20026;-66
2021/12/09 08:49:37;;;;;;;63.38;22.95;;;1.70;90.20;;;;;;4952122;28;20029;-66
2021/12/09 08:52:03;;;;;;;66.32;23.45;;;1.80;90.00;;;;;;4956930;28;20860;-66
2021/12/09 08:54:29;;;;;;;62.67;23.67;;;1.90;90.00;;;;;;4952594;28;20562;-66
2021/12/09 08:56:56;;;;;;;78.68;24.63;;;1.90;89.80;;;;;;4956357;28;20141;-66
2021/12/09 08:59:22;;;;;;;60.95;23.77;;;2.00;89.70;;;;;;4952131;28;20039;-66
2021/12/09 09:01:51;;;;;;;59.30;22.98;;;2.00;89.20;;;;;;4949877;28;20545;-67
2021/12/09 09:04:17;;;;;;;57.65;21.80;;;2.10;88.90;;;;;;4960359;28;20047;-65
2021/12/09 09:06:55;;;;;;;57.85;22.13;;;2.00;88.90;;;;;;4955872;28;20038;-67
2021/12/09 09:09:20;;;;;;;61.08;21.77;;;2.10;89.20;;;;;;4957384;28;20495;-66
2021/12/09 09:11:47;;;;;;;65.78;24.73;;;2.10;89.10;;;;;;4957625;28;20155;-67
2021/12/09 09:14:12;;;;;;;60.08;21.88;;;2.20;87.90;;;;;;4972527;28;20403;-67
2021/12/09 09:16:38;;;;;;;71.40;24.90;;;2.20;88.70;;;;;;4948310;28;20050;-66
2021/12/09 09:19:05;;;;;;;60.33;22.67;;;2.30;89.70;;;;;;4956034;28;20076;-66
2021/12/09 09:21:32;;;;;;;65.82;24.23;;;2.40;89.70;;;;;;4956253;28;20134;-67
2021/12/09 09:23:58;;;;;;;61.35;23.35;;;2.60;89.10;;;;;;4953312;28;20121;-67
2021/12/09 09:26:24;;;;;;;58.60;21.00;;;2.60;87.60;;;;;;4955714;28;20035;-67
2021/12/09 09:28:49;;;;;;;62.35;24.50;;;2.60;86.90;;;;;;4949221;28;20502;-68
2021/12/09 09:31:15;;;;;;;61.20;22.55;;;2.60;87.20;;;;;;4953494;28;20082;-67
2021/12/09 09:33:41;;;;;;;51.42;21.08;;;2.60;86.70;;;;;;4956498;28;20039;-67
2021/12/09 09:36:07;;;;;;;60.88;22.33;;;2.60;86.80;;;;;;4957823;28;20035;-68
2021/12/09 09:38:33;;;;;;;66.60;24.65;;;2.60;86.60;;;;;;4957462;28;20026;-68
2021/12/09 09:41:15;;;;;;;62.65;23.63;;;2.70;86.40;;;;;;4955607;28;20398;-68
2021/12/09 09:46:31;;;;;;;60.85;23.67;;;2.70;86.10;;;;;;4955523;28;20109;-67
2021/12/09 09:48:58;;;;;;;60.67;24.08;;;2.70;85.20;;;;;;4952906;28;20047;-68
2021/12/09 09:51:26;;;;;;;63.33;21.85;;;2.70;86.00;;;;;;4955288;28;20035;-67
2021/12/09 09:53:52;;;;;;;53.15;22.17;;;2.80;85.80;;;;;;4952409;28;20031;-68
2021/12/09 09:56:21;;;;;;;62.08;25.25;;;2.80;85.90;;;;;;4959191;28;20042;-66
2021/12/09 09:58:52;;;;;;;60.42;23.48;;;2.80;85.30;;;;;;4958046;28;20430;-67
2021/12/09 10:01:20;;;;;;;57.78;21.27;;;2.80;85.00;;;;;;4953332;28;20034;-67
2021/12/09 10:03:48;;;;;;;58.10;20.90;;;2.80;84.60;;;;;;4951740;28;20035;-69
2021/12/09 10:06:20;;;;;;;61.03;24.35;;;2.80;85.20;;;;;;4956631;28;20049;-69
2021/12/09 10:08:46;;;;;;;62.95;24.83;;;2.90;84.50;;;;;;4954803;28;20042;-69
2021/12/09 10:11:12;;;;;;;68.20;24.40;;;2.90;84.90;;;;;;4950452;28;20485;-69
2021/12/09 10:13:40;;;;;;;66.45;22.85;;;2.90;84.30;;;;;;4949210;28;20031;-69
2021/12/09 10:16:25;;;;;;;60.63;22.98;;;2.80;84.40;;;;;;4960209;28;20535;-69
2021/12/09 10:18:53;;;;;;;61.40;24.65;;;2.80;85.10;;;;;;4959156;28;20049;-69
2021/12/09 10:21:28;;;;;;;62.33;24.05;;;2.80;84.60;;;;;;4943234;28;20121;-69
2021/12/09 10:24:06;;;;;;;61.05;22.48;;;2.90;83.90;;;;;;4957402;28;20027;-68
2021/12/09 10:26:41;;;;;;;63.50;24.13;;;2.80;85.20;;;;;;4955662;28;20043;-68
2021/12/09 10:29:19;;;;;;;61.90;23.35;;;2.90;85.20;;;;;;4954093;28;20471;-69
2021/12/09 10:31:49;;;;;;;58.88;24.10;;;2.90;84.70;;;;;;4954797;28;20075;-69
2021/12/09 10:34:33;;;;;;;55.10;22.92;;;3.00;85.00;;;;;;4953417;28;20039;-69
2021/12/09 10:37:14;;;;;;;65.55;23.98;;;3.00;84.70;;;;;;4960161;28;20082;-68
2021/12/09 10:39:52;;;;;;;60.38;24.77;;;2.90;84.60;;;;;;4956534;28;20038;-68
2021/12/09 10:42:24;;;;;;;61.08;23.67;;;2.90;85.10;;;;;;4960633;28;20665;-69
2021/12/09 10:44:58;;;;;;;60.92;24.08;;;2.90;85.20;;;;;;4962879;28;20070;-69
2021/12/09 10:50:30;;;;;;;55.80;21.95;;;2.90;84.90;;;;;;4956113;28;20038;-68
2021/12/09 10:53:29;;;;;;;57.80;21.42;;;2.90;85.60;;;;;;4954698;28;20034;-68
2021/12/09 10:55:57;;;;;;;60.95;22.98;;;3.00;85.60;;;;;;4952759;28;20141;-68
2021/12/09 10:58:33;;;;;;;52.22;22.27;;;3.00;86.60;;;;;;4962496;28;20126;-68
2021/12/09 11:01:01;;;;;;;58.40;23.50;;;3.10;84.80;;;;;;4973767;28;20035;-68
2021/12/09 11:03:40;;;;;;;57.88;22.77;;;3.00;84.70;;;;;;4961934;28;20508;-69
2021/12/09 11:06:14;;;;;;;56.15;21.42;;;3.00;85.10;;;;;;4961890;28;20480;-68
2021/12/09 11:08:53;;;;;;;57.22;22.77;;;3.00;85.20;;;;;;4962087;28;20047;-68
2021/12/09 11:11:32;;;;;;;53.55;21.20;;;3.10;84.60;;;;;;4953152;28;20525;-68
2021/12/09 11:14:03;;;;;;;58.97;23.23;;;3.10;84.50;;;;;;4957851;28;20045;-68
2021/12/09 11:16:32;;;;;;;63.13;22.92;;;3.10;84.60;;;;;;4956300;28;20047;-68
2021/12/09 11:19:34;;;;;;;55.10;21.63;;;3.20;83.90;;;;;;4956652;28;20720;-68
2021/12/09 11:22:02;;;;;;;57.15;21.65;;;3.20;83.40;;;;;;4978464;28;20035;-68
2021/12/09 11:24:35;;;;;;;53.15;22.27;;;3.20;83.10;;;;;;4955720;28;20022;-67
2021/12/09 11:27:03;;;;;;;51.33;20.83;;;3.20;84.20;;;;;;4959552;28;20031;-68
2021/12/09 11:29:31;;;;;;;54.80;22.60;;;3.10;83.50;;;;;;4959377;28;20228;-68
2021/12/09 11:32:25;;;;;;;54.85;24.48;;;3.10;83.80;;;;;;4953600;28;20065;-68
2021/12/09 11:35:13;;;;;;;53.78;22.38;;;3.20;83.60;;;;;;4952188;28;20150;-68
2021/12/09 11:37:50;;;;;;;57.08;22.13;;;3.20;84.00;;;;;;4956668;28;20046;-68
2021/12/09 11:40:36;;;;;;;58.58;22.38;;;3.20;83.80;;;;;;4961360;28;20458;-68
2021/12/09 11:43:04;;;;;;;58.45;22.83;;;3.20;84.10;;;;;;4961627;28;20027;-68
2021/12/09 11:45:40;;;;;;;55.03;22.88;;;3.10;83.00;;;;;;4950217;28;20035;-68
2021/12/09 11:48:08;;;;;;;61.78;22.88;;;3.20;83.50;;;;;;4949649;28;20030;-68
2021/12/09 11:50:41;;;;;;;62.05;24.92;;;3.20;83.40;;;;;;4961632;28;20034;-68
2021/12/09 11:53:09;;;;;;;60.70;24.48;;;3.20;83.20;;;;;;4960464;28;20043;-68
2021/12/09 11:55:37;;;;;;;58.05;23.00;;;3.20;83.60;;;;;;4958380;28;20030;-68
2021/12/09 11:58:11;;;;;;;62.30;24.23;;;3.20;83.70;;;;;;4959146;28;20062;-68
2021/12/09 12:14:58;;;;;;;53.67;22.00;;;3.20;84.40;;;;;;4957547;28;20049;-69
2021/12/09 12:19:54;;;;;;;61.83;23.98;;;3.40;83.80;;;;;;4950638;28;20066;-68
2021/12/09 12:23:08;;;;;;;52.10;22.45;;;3.40;82.80;;;;;;4956629;28;20077;-69
2021/12/09 12:28:28;;;;;;;62.20;23.30;;;3.30;83.50;;;;;;4950401;28;20105;-69
2021/12/09 12:31:11;;;;;;;58.33;22.38;;;3.30;84.10;;;;;;4958481;28;20034;-68
2021/12/09 12:40:05;;;;;;;55.33;21.55;;;3.30;84.10;;;;;;4955442;28;20035;-68
2021/12/09 12:42:48;;;;;;;53.63;21.23;;;3.30;83.80;;;;;;4952124;28;20043;-68
2021/12/09 12:51:29;;;;;;;54.92;21.25;;;3.00;83.30;;;;;;4960819;28;20039;-67
2021/12/09 12:53:57;;;;;;;63.47;23.17;;;3.00;84.60;;;;;;4958173;28;20042;-67
2021/12/09 12:56:40;;;;;;;58.30;23.63;;;3.00;84.60;;;;;;4952992;28;20035;-68
2021/12/09 13:01:33;;;;;;;63.03;23.98;;;3.00;85.60;;;;;;4958448;28;20144;-68
2021/12/09 13:04:12;;;;;;;56.70;22.35;;;3.00;85.80;;;;;;4951977;28;20517;-67
2021/12/09 13:06:54;;;;;;;50.40;21.10;;;3.00;85.40;;;;;;4952973;28;20039;-68
2021/12/09 13:09:37;;;;;;;60.08;24.20;;;3.10;85.30;;;;;;4949277;28;20047;-67
2021/12/09 13:12:07;;;;;;;59.25;22.73;;;3.10;84.20;;;;;;4953364;28;20447;-67
2021/12/09 13:14:53;;;;;;;56.47;21.75;;;3.10;85.20;;;;;;4955530;28;20037;-67
2021/12/09 13:17:40;;;;;;;63.90;23.88;;;3.10;85.80;;;;;;4967611;28;20173;-67
2021/12/09 13:20:15;;;;;;;62.88;24.35;;;3.00;85.60;;;;;;4954415;28;20177;-67
2021/12/09 13:22:41;;;;;;;54.38;22.35;;;3.00;85.70;;;;;;4954738;28;20735;-67
2021/12/09 13:25:20;;;;;;;53.47;22.83;;;3.00;85.90;;;;;;4949300;28;20063;-67
2021/12/09 13:28:01;;;;;;;60.72;24.13;;;3.00;86.20;;;;;;4948527;28;20035;-68
2021/12/09 13:33:38;;;;;;;71.13;28.52;;;3.10;85.70;;;;;;4951885;28;20046;-67
2021/12/09 13:36:29;;;;;;;60.75;23.08;;;3.00;85.90;;;;;;4952504;28;20772;-67